Entlerville, Pennsylvania
Current Conditions -  °F | °C
As of 5:56 PM on Thursday 27 Nov 2014 (Local Time) from KCXY Reporting Station
Overcast Overcast  
Wind Chill: 31°   Ceiling: 7000
Heat Index: 35°   Visibility: 10mi
Dew Point: 30°   Wind: 5mph
Humidity: 82%   Direction: 280°W
Pressure: 30.09"   Gusts: NA
Location:  40.183°N, 77.4166°W
Report Text: KCXY 272256Z AUTO 28004KT 10SM OVC070 02/M01 A3009 RMK AO2 RAB02E29SNE02 SLP193 P0000 T00171011
Loading
Personal Weather Stations






























Interactive Weather Map New forecast layout! Learn more

10-Day Weather Forecast

Advertisements
Track Severe Weather on mobile